Time;durP1;ratioP1;P1;durP2;ratioP2;P2;SDS_P1;SDS_P2;PMS_P1;PMS_P2;Temp;Humidity;BMP_temperature;BMP_pressure;BME280_temperature;BME280_humidity;BME280_pressure;Samples;Min_cycle;Max_cycle;Signal;HPM_P1;HPM_P2
2024/01/19 00:00:16;;;;;;;22.77;9.80;;;;;;;-141.50;100.00;63355.56;4949098;28;20063;-80
2024/01/19 00:02:42;;;;;;;26.38;9.77;;;;;;;-141.50;100.00;63355.56;4944730;28;20047;-81
2024/01/19 00:05:09;;;;;;;28.15;9.57;;;;;;;-141.50;100.00;63355.56;4968453;28;20059;-81
2024/01/19 00:07:36;;;;;;;22.10;9.63;;;;;;;-141.50;100.00;63355.56;4989169;28;20057;-80
2024/01/19 00:10:03;;;;;;;29.02;9.50;;;;;;;-141.50;100.00;63355.56;4953117;28;20082;-81
2024/01/19 00:12:35;;;;;;;21.17;8.75;;;;;;;-141.50;100.00;63355.56;4949754;28;20516;-81
2024/01/19 00:15:09;;;;;;;24.55;10.15;;;;;;;-141.50;100.00;63355.56;4950577;28;20154;-80
2024/01/19 00:17:36;;;;;;;28.67;9.65;;;;;;;-141.50;100.00;63355.56;4950937;28;20417;-81
2024/01/19 00:20:08;;;;;;;26.60;9.75;;;;;;;-141.50;100.00;63355.56;4956667;28;20063;-82
2024/01/19 00:22:36;;;;;;;27.67;9.40;;;;;;;-141.50;100.00;63355.56;4967643;28;20517;-81
2024/01/19 00:25:03;;;;;;;27.58;9.20;;;;;;;-141.50;100.00;63355.56;4964341;28;20570;-82
2024/01/19 00:27:29;;;;;;;22.80;9.27;;;;;;;-141.50;100.00;63355.56;4963377;28;20559;-82
2024/01/19 00:29:56;;;;;;;33.05;10.73;;;;;;;-141.50;100.00;63355.56;4994107;28;20460;-81
2024/01/19 00:32:23;;;;;;;23.25;10.30;;;;;;;-141.50;100.00;63355.56;4949470;28;20063;-82
2024/01/19 00:34:50;;;;;;;28.52;10.98;;;;;;;-141.50;100.00;63355.56;4949266;28;20425;-82
2024/01/19 00:37:16;;;;;;;30.27;10.93;;;;;;;-141.50;100.00;63355.56;4977200;28;20075;-82
2024/01/19 00:39:43;;;;;;;27.98;11.32;;;;;;;-141.50;100.00;63355.56;4960167;28;20070;-82
2024/01/19 00:42:10;;;;;;;27.80;10.63;;;;;;;-141.50;100.00;63355.56;4963616;28;20055;-82
2024/01/19 00:44:36;;;;;;;28.65;10.50;;;;;;;-141.50;100.00;63355.56;4975472;28;20052;-81
2024/01/19 00:47:03;;;;;;;32.85;10.63;;;;;;;-141.50;100.00;63355.56;4973055;28;20055;-82
2024/01/19 00:49:30;;;;;;;23.38;10.55;;;;;;;-141.50;100.00;63355.56;4949060;28;20054;-81
2024/01/19 00:51:57;;;;;;;32.78;11.73;;;;;;;-141.50;100.00;63355.56;4951724;28;20055;-81
2024/01/19 00:54:24;;;;;;;25.80;10.70;;;;;;;-141.50;100.00;63355.56;4949092;28;20051;-81
2024/01/19 00:56:51;;;;;;;31.52;11.77;;;;;;;-141.50;100.00;63355.56;4951119;28;20062;-81
2024/01/19 00:59:17;;;;;;;32.83;11.68;;;;;;;-141.50;100.00;63355.56;4949988;28;20453;-81
2024/01/19 01:01:47;;;;;;;28.75;11.30;;;;;;;-141.50;100.00;63355.56;4947001;28;20482;-81
2024/01/19 01:04:14;;;;;;;28.92;11.25;;;;;;;-141.50;100.00;63355.56;4947638;28;20051;-82
2024/01/19 01:06:41;;;;;;;28.75;11.20;;;;;;;-141.50;100.00;63355.56;4949948;28;20094;-80
2024/01/19 01:09:08;;;;;;;31.42;11.48;;;;;;;-141.50;100.00;63355.56;4991426;28;20055;-79
2024/01/19 01:11:34;;;;;;;27.23;10.73;;;;;;;-141.50;100.00;63355.56;4961973;28;20043;-79
2024/01/19 01:14:01;;;;;;;26.55;10.10;;;;;;;-141.50;100.00;63355.56;5035149;28;20059;-79
2024/01/19 01:16:29;;;;;;;25.83;9.77;;;;;;;-141.50;100.00;63355.56;4977503;28;20050;-79
2024/01/19 01:18:57;;;;;;;23.80;9.43;;;;;;;-141.50;100.00;63355.56;4974874;28;20062;-80
2024/01/19 01:21:25;;;;;;;26.73;10.25;;;;;;;-141.50;100.00;63355.56;4976497;28;20128;-79
2024/01/19 01:23:52;;;;;;;24.38;10.40;;;;;;;-141.50;100.00;63355.56;4971189;28;20144;-79
2024/01/19 01:26:19;;;;;;;28.13;10.65;;;;;;;-141.50;100.00;63355.56;4986584;28;20105;-79
2024/01/19 01:28:46;;;;;;;26.55;9.93;;;;;;;-141.50;100.00;63355.56;4946427;28;20055;-80
2024/01/19 01:31:12;;;;;;;23.65;9.75;;;;;;;-141.50;100.00;63355.56;4955283;28;20081;-80
2024/01/19 01:33:39;;;;;;;28.83;10.45;;;;;;;-141.50;100.00;63355.56;4966127;28;20595;-81
2024/01/19 01:36:06;;;;;;;30.83;11.00;;;;;;;-141.50;100.00;63355.56;4962631;28;20056;-80
2024/01/19 01:38:33;;;;;;;29.55;11.18;;;;;;;-141.50;100.00;63355.56;4961193;28;20090;-81
2024/01/19 01:41:00;;;;;;;32.05;10.25;;;;;;;-141.50;100.00;63355.56;4961014;28;20079;-81
2024/01/19 01:43:29;;;;;;;29.25;10.90;;;;;;;-141.50;100.00;63355.56;4961035;28;20047;-81
2024/01/19 01:45:57;;;;;;;32.42;11.05;;;;;;;-141.50;100.00;63355.56;4958305;28;20084;-81
2024/01/19 01:48:25;;;;;;;27.77;9.75;;;;;;;-141.50;100.00;63355.56;4970694;28;20118;-79
2024/01/19 01:50:54;;;;;;;32.00;10.90;;;;;;;-141.50;100.00;63355.56;4994014;28;20584;-79
2024/01/19 01:53:21;;;;;;;33.53;11.57;;;;;;;-141.50;100.00;63355.56;4959225;28;20055;-80
2024/01/19 01:55:48;;;;;;;34.15;11.50;;;;;;;-141.50;100.00;63355.56;4992928;28;20161;-80
2024/01/19 01:58:16;;;;;;;32.00;11.32;;;;;;;-141.50;100.00;63355.56;4957802;28;20066;-80
2024/01/19 02:00:43;;;;;;;27.85;11.07;;;;;;;-141.50;100.00;63355.56;4954685;28;20301;-80
2024/01/19 02:03:11;;;;;;;25.63;11.00;;;;;;;-141.50;100.00;63355.56;5012109;28;20046;-81
2024/01/19 02:05:41;;;;;;;26.98;11.40;;;;;;;-141.50;100.00;63355.56;4956287;28;20059;-80
2024/01/19 02:08:08;;;;;;;27.23;11.02;;;;;;;-141.50;100.00;63355.56;4961193;28;20501;-81
2024/01/19 02:10:35;;;;;;;26.15;10.45;;;;;;;-141.50;100.00;63355.56;4966576;28;20110;-81
2024/01/19 02:13:02;;;;;;;26.30;11.13;;;;;;;-141.50;100.00;63355.56;4975632;28;20048;-81
2024/01/19 02:15:30;;;;;;;31.33;11.63;;;;;;;-141.50;100.00;63355.56;4966174;28;20137;-81
2024/01/19 02:17:56;;;;;;;31.70;12.00;;;;;;;-141.50;100.00;63355.56;4941911;28;20077;-80
2024/01/19 02:20:23;;;;;;;27.88;11.13;;;;;;;-141.50;100.00;63355.56;4959452;28;20085;-80
2024/01/19 02:22:54;;;;;;;26.48;11.32;;;;;;;-141.50;100.00;63355.56;4954409;28;20066;-80
2024/01/19 02:25:21;;;;;;;30.90;10.48;;;;;;;-141.50;100.00;63355.56;4951949;28;20497;-79
2024/01/19 02:27:48;;;;;;;29.40;10.65;;;;;;;-141.50;100.00;63355.56;4975224;28;20053;-80
2024/01/19 02:30:14;;;;;;;25.98;10.32;;;;;;;-141.50;100.00;63355.56;4961348;28;20055;-81
2024/01/19 02:32:41;;;;;;;29.42;11.63;;;;;;;-141.50;100.00;63355.56;4955966;28;20292;-80
2024/01/19 02:35:08;;;;;;;27.45;9.75;;;;;;;-141.50;100.00;63355.56;5007938;28;20051;-80
2024/01/19 02:37:35;;;;;;;26.63;10.52;;;;;;;-141.50;100.00;63355.56;5031941;28;20048;-80
2024/01/19 02:40:04;;;;;;;30.75;11.70;;;;;;;-141.50;100.00;63355.56;4980882;28;20097;-80
2024/01/19 02:42:32;;;;;;;34.65;12.88;;;;;;;-141.50;100.00;63355.56;4990154;28;20400;-79
2024/01/19 02:45:01;;;;;;;34.50;11.90;;;;;;;-141.50;100.00;63355.56;4960003;28;20121;-79
2024/01/19 02:47:28;;;;;;;38.13;11.70;;;;;;;-141.50;100.00;63355.56;4962465;28;20058;-80
2024/01/19 02:49:57;;;;;;;29.15;11.88;;;;;;;-141.50;100.00;63355.56;4976910;28;20060;-81
2024/01/19 02:52:24;;;;;;;30.88;11.95;;;;;;;-141.50;100.00;63355.56;4996702;28;20132;-81
2024/01/19 02:54:51;;;;;;;32.47;12.50;;;;;;;-141.50;100.00;63355.56;4996177;28;20066;-81
2024/01/19 02:57:17;;;;;;;33.80;12.90;;;;;;;-141.50;100.00;63355.56;4968041;28;20471;-82
2024/01/19 02:59:44;;;;;;;31.15;12.95;;;;;;;-141.50;100.00;63355.56;4999860;28;20139;-81
2024/01/19 03:02:12;;;;;;;30.50;12.50;;;;;;;-141.50;100.00;63355.56;4968066;28;20059;-81
2024/01/19 03:04:41;;;;;;;35.95;13.30;;;;;;;-141.50;100.00;63355.56;4956396;28;20067;-81
2024/01/19 03:07:08;;;;;;;32.97;11.93;;;;;;;-141.50;100.00;63355.56;5002558;28;20421;-82
2024/01/19 03:09:34;;;;;;;33.17;14.23;;;;;;;-141.50;100.00;63355.56;4988358;28;20045;-80
2024/01/19 03:12:01;;;;;;;35.72;14.10;;;;;;;-141.50;100.00;63355.56;4955699;28;20529;-81
2024/01/19 03:14:28;;;;;;;38.55;15.32;;;;;;;-141.50;100.00;63355.56;4986605;28;20051;-81
2024/01/19 03:16:55;;;;;;;36.17;14.25;;;;;;;-141.50;100.00;63355.56;4959833;28;20059;-80
2024/01/19 03:19:21;;;;;;;43.15;15.65;;;;;;;-141.50;100.00;63355.56;4990382;28;20519;-80
2024/01/19 03:21:48;;;;;;;40.58;14.77;;;;;;;-141.50;100.00;63355.56;4967007;28;20517;-80
2024/01/19 03:24:15;;;;;;;38.40;15.57;;;;;;;-141.50;100.00;63355.56;4993774;28;20061;-80
2024/01/19 03:26:42;;;;;;;35.38;14.18;;;;;;;-141.50;100.00;63355.56;4953618;28;20138;-81
2024/01/19 03:29:09;;;;;;;39.58;14.85;;;;;;;-141.50;100.00;63355.56;4988273;28;20089;-79
2024/01/19 03:31:36;;;;;;;36.30;13.75;;;;;;;-141.50;100.00;63355.56;4963967;28;20200;-81
2024/01/19 03:34:02;;;;;;;34.03;13.88;;;;;;;-141.50;100.00;63355.56;4968040;28;20055;-80
2024/01/19 03:36:29;;;;;;;32.55;13.18;;;;;;;-141.50;100.00;63355.56;4956815;28;20077;-80
2024/01/19 03:38:56;;;;;;;37.17;14.70;;;;;;;-141.50;100.00;63355.56;4952074;28;20055;-81
2024/01/19 03:41:22;;;;;;;36.08;13.70;;;;;;;-141.50;100.00;63355.56;4944366;28;20052;-81
2024/01/19 03:43:49;;;;;;;36.30;15.30;;;;;;;-141.50;100.00;63355.56;4966507;28;20549;-81
2024/01/19 03:46:16;;;;;;;37.42;15.10;;;;;;;-141.50;100.00;63355.56;4962944;28;20048;-80
2024/01/19 03:48:43;;;;;;;34.88;14.68;;;;;;;-141.50;100.00;63355.56;4983187;28;20061;-80
2024/01/19 03:51:10;;;;;;;38.67;14.85;;;;;;;-141.50;100.00;63355.56;4958934;28;20058;-80
2024/01/19 03:53:37;;;;;;;40.13;15.77;;;;;;;-141.50;100.00;63355.56;4948043;28;20108;-80
2024/01/19 03:56:04;;;;;;;35.75;14.73;;;;;;;-141.50;100.00;63355.56;4967198;28;20089;-81
2024/01/19 03:58:30;;;;;;;41.15;15.98;;;;;;;-141.50;100.00;63355.56;4984804;28;20049;-80
2024/01/19 04:00:57;;;;;;;41.58;15.77;;;;;;;-141.50;100.00;63355.56;4992510;28;20070;-80
2024/01/19 04:03:24;;;;;;;35.63;14.40;;;;;;;-141.50;100.00;63355.56;4955655;28;20055;-82
2024/01/19 04:05:51;;;;;;;39.35;16.10;;;;;;;-141.50;100.00;63355.56;4963581;28;20059;-82
2024/01/19 04:08:19;;;;;;;37.78;15.50;;;;;;;-141.50;100.00;63355.56;4999465;28;20059;-82
2024/01/19 04:10:46;;;;;;;37.65;15.40;;;;;;;-141.50;100.00;63355.56;4954534;28;20066;-81
2024/01/19 04:13:13;;;;;;;39.47;16.20;;;;;;;-141.50;100.00;63355.56;4952229;28;20055;-82
2024/01/19 04:15:39;;;;;;;44.30;15.70;;;;;;;-141.50;100.00;63355.56;4950274;28;20096;-81
2024/01/19 04:18:06;;;;;;;42.67;15.80;;;;;;;-141.50;100.00;63355.56;4951944;28;20066;-81
2024/01/19 04:20:33;;;;;;;34.33;14.38;;;;;;;-141.50;100.00;63355.56;4951485;28;20568;-79
2024/01/19 04:22:59;;;;;;;41.92;14.02;;;;;;;-141.50;100.00;63355.56;4961260;28;20140;-82
2024/01/19 04:25:26;;;;;;;36.95;15.18;;;;;;;-141.50;100.00;63355.56;4962656;28;20042;-81
2024/01/19 04:27:53;;;;;;;40.33;15.75;;;;;;;-141.50;100.00;63355.56;4981250;28;20069;-82
2024/01/19 04:30:19;;;;;;;39.47;14.95;;;;;;;-141.50;100.00;63355.56;4978131;28;20054;-80
2024/01/19 04:32:46;;;;;;;40.38;15.15;;;;;;;-141.50;100.00;63355.56;5004643;28;20471;-82
2024/01/19 04:35:13;;;;;;;40.60;15.68;;;;;;;-141.50;100.00;63355.56;4952089;28;20052;-81
2024/01/19 04:37:40;;;;;;;35.78;14.65;;;;;;;-141.50;100.00;63355.56;4958210;28;20054;-80
2024/01/19 04:40:07;;;;;;;37.22;16.08;;;;;;;-141.50;100.00;63355.56;4948783;28;20101;-80
2024/01/19 04:42:34;;;;;;;41.53;15.45;;;;;;;-141.50;100.00;63355.56;4982528;28;20043;-80
2024/01/19 04:45:00;;;;;;;40.47;15.40;;;;;;;-141.50;100.00;63355.56;4964857;28;20456;-81
2024/01/19 04:47:27;;;;;;;40.80;16.52;;;;;;;-141.50;100.00;63355.56;4954087;28;20123;-80
2024/01/19 04:49:54;;;;;;;36.10;14.57;;;;;;;-141.50;100.00;63355.56;4979807;28;20571;-81
2024/01/19 04:52:21;;;;;;;35.88;14.85;;;;;;;-141.50;100.00;63355.56;4967912;28;20565;-79
2024/01/19 04:54:48;;;;;;;36.22;13.15;;;;;;;-141.50;100.00;63355.56;5006980;28;20069;-80
2024/01/19 04:57:16;;;;;;;38.00;13.35;;;;;;;-141.50;100.00;63355.56;5011729;28;20047;-82
2024/01/19 04:59:48;;;;;;;35.45;13.55;;;;;;;-141.50;100.00;63355.56;4969477;28;20150;-80
2024/01/19 05:02:15;;;;;;;38.20;13.85;;;;;;;-141.50;100.00;63355.56;4984743;28;20043;-79
2024/01/19 05:04:48;;;;;;;39.03;13.65;;;;;;;-141.50;100.00;63355.56;4953436;28;20031;-79
2024/01/19 05:07:14;;;;;;;34.20;13.90;;;;;;;-141.50;100.00;63355.56;4998115;28;20057;-79
2024/01/19 05:09:42;;;;;;;34.03;13.85;;;;;;;-141.50;100.00;63355.56;4974005;28;20078;-80
2024/01/19 05:12:09;;;;;;;37.25;14.40;;;;;;;-141.50;100.00;63355.56;5032316;28;20053;-82
2024/01/19 05:14:37;;;;;;;34.92;14.25;;;;;;;-141.50;100.00;63355.56;4979836;28;20047;-79
2024/01/19 05:17:06;;;;;;;36.10;13.07;;;;;;;-141.50;100.00;63355.56;5011531;28;20233;-81
2024/01/19 05:19:33;;;;;;;34.30;13.35;;;;;;;-141.50;100.00;63355.56;4971813;28;20144;-81
2024/01/19 05:22:00;;;;;;;33.67;13.32;;;;;;;-141.50;100.00;63355.56;4965946;28;20539;-81
2024/01/19 05:24:26;;;;;;;33.75;13.93;;;;;;;-141.50;100.00;63355.56;4964816;28;20065;-81
2024/01/19 05:26:55;;;;;;;38.60;12.60;;;;;;;-141.50;100.00;63355.56;5006432;28;20057;-81
2024/01/19 05:29:22;;;;;;;32.13;12.15;;;;;;;-141.50;100.00;63355.56;4982142;28;20059;-80
2024/01/19 05:31:49;;;;;;;29.95;12.80;;;;;;;-141.50;100.00;63355.56;5027694;28;20504;-80
2024/01/19 05:34:16;;;;;;;29.10;11.80;;;;;;;-141.50;100.00;63355.56;4983522;28;20529;-80
2024/01/19 05:36:45;;;;;;;29.33;12.48;;;;;;;-141.50;100.00;63355.56;4985292;28;20112;-80
2024/01/19 05:39:12;;;;;;;32.90;13.57;;;;;;;-141.50;100.00;63355.56;4961942;28;20058;-81
2024/01/19 05:41:40;;;;;;;38.50;13.00;;;;;;;-141.50;100.00;63355.56;4988058;28;20059;-80
2024/01/19 05:44:07;;;;;;;31.63;13.02;;;;;;;-141.50;100.00;63355.56;4991288;28;20054;-81
2024/01/19 05:46:35;;;;;;;37.05;13.38;;;;;;;-141.50;100.00;63355.56;4959539;28;20046;-80
2024/01/19 05:49:02;;;;;;;34.30;13.88;;;;;;;-141.50;100.00;63355.56;4947489;28;20051;-81
2024/01/19 05:51:28;;;;;;;32.03;13.10;;;;;;;-141.50;100.00;63355.56;4957963;28;20092;-81
2024/01/19 05:53:55;;;;;;;33.95;13.88;;;;;;;-141.50;100.00;63355.56;5021161;28;20056;-81
2024/01/19 05:56:22;;;;;;;32.78;14.07;;;;;;;-141.50;100.00;63355.56;5004566;28;20049;-79
2024/01/19 05:58:49;;;;;;;31.63;12.25;;;;;;;-141.50;100.00;63355.56;5030058;28;20045;-81
2024/01/19 06:01:15;;;;;;;33.90;12.90;;;;;;;-141.50;100.00;63355.56;4992270;28;20054;-80
2024/01/19 06:03:42;;;;;;;29.73;11.15;;;;;;;-141.50;100.00;63355.56;5028195;28;20303;-80
2024/01/19 06:06:09;;;;;;;31.13;11.82;;;;;;;-141.50;100.00;63355.56;4944883;28;20055;-81
2024/01/19 06:08:36;;;;;;;29.38;11.75;;;;;;;-141.50;100.00;63355.56;4974942;28;20044;-81
2024/01/19 06:11:03;;;;;;;30.90;11.35;;;;;;;-141.50;100.00;63355.56;4971456;28;20657;-81
2024/01/19 06:13:30;;;;;;;28.45;11.18;;;;;;;-141.50;100.00;63355.56;4990879;28;20043;-81
2024/01/19 06:15:57;;;;;;;28.33;11.40;;;;;;;-141.50;100.00;63355.56;4949728;28;20254;-78
2024/01/19 06:18:23;;;;;;;23.58;10.38;;;;;;;-141.50;100.00;63355.56;5010147;28;20063;-79
2024/01/19 06:20:51;;;;;;;24.58;11.65;;;;;;;-141.50;100.00;63355.56;4943099;28;20039;-79
2024/01/19 06:23:18;;;;;;;27.80;10.73;;;;;;;-141.50;100.00;63355.56;5002576;28;20845;-79
2024/01/19 06:25:45;;;;;;;24.13;10.05;;;;;;;-141.50;100.00;63355.56;5040430;28;20049;-79
2024/01/19 06:28:12;;;;;;;26.88;10.80;;;;;;;-141.50;100.00;63355.56;5000572;28;20134;-79
2024/01/19 06:30:39;;;;;;;22.15;8.98;;;;;;;-141.50;100.00;63355.56;4988482;28;20055;-80
2024/01/19 06:33:08;;;;;;;26.75;10.63;;;;;;;-141.50;100.00;63355.56;4992484;28;20098;-79
2024/01/19 06:35:35;;;;;;;27.00;9.88;;;;;;;-141.50;100.00;63355.56;4990459;28;20122;-79
2024/01/19 06:38:04;;;;;;;22.98;9.80;;;;;;;-141.50;100.00;63355.56;4970751;28;20061;-79
2024/01/19 06:40:31;;;;;;;22.70;10.02;;;;;;;-141.50;100.00;63355.56;4985735;28;20046;-79
2024/01/19 06:42:57;;;;;;;24.23;9.63;;;;;;;-141.50;100.00;63355.56;4957140;28;20067;-79
2024/01/19 06:45:27;;;;;;;22.83;9.13;;;;;;;-141.50;100.00;63355.56;4992253;28;20135;-77
2024/01/19 06:47:53;;;;;;;22.63;9.70;;;;;;;-141.50;100.00;63355.56;4948927;28;20093;-78
2024/01/19 06:50:23;;;;;;;20.48;9.00;;;;;;;-141.50;100.00;63355.56;4942061;28;20504;-79
2024/01/19 06:52:50;;;;;;;20.73;8.90;;;;;;;-141.50;100.00;63355.56;4956159;28;20047;-79
2024/01/19 06:55:17;;;;;;;25.30;8.77;;;;;;;-141.50;100.00;63355.56;4976917;28;20175;-78
2024/01/19 06:57:46;;;;;;;18.83;8.18;;;;;;;-141.50;100.00;63355.56;4956323;28;20054;-80
2024/01/19 07:00:13;;;;;;;19.02;7.90;;;;;;;-141.50;100.00;63355.56;4950353;28;20059;-80
2024/01/19 07:02:40;;;;;;;21.52;8.95;;;;;;;-141.50;100.00;63355.56;4980856;28;20132;-79
2024/01/19 07:05:06;;;;;;;25.40;8.88;;;;;;;-141.50;100.00;63355.56;4959270;28;20422;-78
2024/01/19 07:07:33;;;;;;;20.38;9.00;;;;;;;-141.50;100.00;63355.56;4957715;28;20463;-79
2024/01/19 07:10:00;;;;;;;21.75;8.57;;;;;;;-141.50;100.00;63355.56;4940779;28;20063;-78
2024/01/19 07:12:26;;;;;;;21.83;8.73;;;;;;;-141.50;100.00;63355.56;5023451;28;20047;-79
2024/01/19 07:14:57;;;;;;;24.15;9.10;;;;;;;-141.50;100.00;63355.56;4940499;28;20135;-79
2024/01/19 07:17:24;;;;;;;24.80;8.75;;;;;;;-141.50;100.00;63355.56;4955228;28;20059;-79
2024/01/19 07:19:51;;;;;;;24.38;8.50;;;;;;;-141.50;100.00;63355.56;4959141;28;20065;-79
2024/01/19 07:22:17;;;;;;;19.75;7.45;;;;;;;-141.50;100.00;63355.56;4975784;28;20064;-79
2024/01/19 07:24:44;;;;;;;18.88;7.95;;;;;;;-141.50;100.00;63355.56;5017966;28;20109;-77
2024/01/19 07:27:11;;;;;;;19.13;7.97;;;;;;;-141.50;100.00;63355.56;5047287;28;20049;-79
2024/01/19 07:29:39;;;;;;;24.55;7.20;;;;;;;-141.50;100.00;63355.56;5002842;28;20502;-78
2024/01/19 07:32:08;;;;;;;19.17;6.95;;;;;;;-141.50;100.00;63355.56;4966958;28;20787;-79
2024/01/19 07:34:34;;;;;;;18.88;7.80;;;;;;;-141.50;100.00;63355.56;4999161;28;20131;-80
2024/01/19 07:37:02;;;;;;;20.20;8.57;;;;;;;-141.50;100.00;63355.56;4985053;28;20045;-80
2024/01/19 07:39:29;;;;;;;20.48;8.07;;;;;;;-141.50;100.00;63355.56;4946878;28;20101;-80
2024/01/19 07:41:56;;;;;;;18.33;6.30;;;;;;;-141.50;100.00;63355.56;4954538;28;20536;-80
2024/01/19 07:44:24;;;;;;;16.65;6.85;;;;;;;-141.50;100.00;63355.56;4958048;28;20058;-80
2024/01/19 07:46:50;;;;;;;16.38;7.07;;;;;;;-141.50;100.00;63355.56;4961063;28;20081;-79
2024/01/19 07:49:21;;;;;;;19.25;6.75;;;;;;;-141.50;100.00;63355.56;4978971;28;20511;-79
2024/01/19 07:51:49;;;;;;;16.33;7.07;;;;;;;-141.50;100.00;63355.56;4995024;28;20052;-79
2024/01/19 07:54:17;;;;;;;16.48;6.80;;;;;;;-141.50;100.00;63355.56;4942701;28;20522;-79
2024/01/19 07:56:44;;;;;;;15.05;6.63;;;;;;;-141.50;100.00;63355.56;4956893;28;20059;-79
2024/01/19 07:59:11;;;;;;;16.08;6.32;;;;;;;-141.50;100.00;63355.56;4981472;28;20121;-79
2024/01/19 08:01:38;;;;;;;16.00;5.97;;;;;;;-141.50;100.00;63355.56;4954078;28;20105;-80
2024/01/19 08:04:05;;;;;;;15.52;6.70;;;;;;;-141.50;100.00;63355.56;5005588;28;20057;-79
2024/01/19 08:06:32;;;;;;;15.20;6.38;;;;;;;-141.50;100.00;63355.56;4978873;28;20075;-79
2024/01/19 08:08:59;;;;;;;15.13;6.10;;;;;;;-141.50;100.00;63355.56;4995912;28;20235;-79
2024/01/19 08:11:26;;;;;;;15.20;5.82;;;;;;;-141.50;100.00;63355.56;4978434;28;20051;-79
2024/01/19 08:13:52;;;;;;;18.83;6.20;;;;;;;-141.50;100.00;63355.56;4961005;28;20047;-80
2024/01/19 08:16:19;;;;;;;13.75;5.72;;;;;;;-141.50;100.00;63355.56;4975050;28;20065;-81
2024/01/19 08:18:46;;;;;;;14.88;6.22;;;;;;;-141.50;100.00;63355.56;4962248;28;20142;-79
2024/01/19 08:21:13;;;;;;;17.75;5.85;;;;;;;-141.50;100.00;63355.56;4955907;28;20118;-80
2024/01/19 08:23:43;;;;;;;16.45;5.70;;;;;;;-141.50;100.00;63355.56;4956683;28;20054;-80
2024/01/19 08:26:09;;;;;;;12.32;5.68;;;;;;;-141.50;100.00;63355.56;4995421;28;20079;-80
2024/01/19 08:28:36;;;;;;;11.93;5.35;;;;;;;-141.50;100.00;63355.56;4983435;28;20108;-80
2024/01/19 08:31:03;;;;;;;14.48;5.20;;;;;;;-141.50;100.00;63355.56;4971547;28;20078;-81
2024/01/19 08:33:30;;;;;;;14.35;4.95;;;;;;;-141.50;100.00;63355.56;4995755;28;20063;-81
2024/01/19 08:35:57;;;;;;;10.95;5.40;;;;;;;-141.50;100.00;63355.56;4959260;28;20142;-81
2024/01/19 08:38:24;;;;;;;16.08;5.90;;;;;;;-141.50;100.00;63355.56;4963795;28;20440;-80
2024/01/19 08:40:50;;;;;;;14.68;5.28;;;;;;;-141.50;100.00;63355.56;4983790;28;20047;-81
2024/01/19 08:43:17;;;;;;;15.40;5.68;;;;;;;-141.50;100.00;63355.56;4956166;28;20070;-80
2024/01/19 08:45:44;;;;;;;13.75;5.15;;;;;;;-141.50;100.00;63355.56;4965622;28;20100;-80
2024/01/19 08:48:10;;;;;;;12.15;4.95;;;;;;;-141.50;100.00;63355.56;5024801;28;20113;-80
2024/01/19 08:50:38;;;;;;;11.20;4.90;;;;;;;-141.50;100.00;63355.56;4981054;28;20047;-80
2024/01/19 08:53:05;;;;;;;12.68;4.85;;;;;;;-141.50;100.00;63355.56;4947701;28;20461;-78
2024/01/19 08:55:32;;;;;;;13.88;4.78;;;;;;;-141.50;100.00;63355.56;4964616;28;20244;-79
2024/01/19 08:57:59;;;;;;;9.90;4.65;;;;;;;-141.50;100.00;63355.56;4957418;28;20059;-79
2024/01/19 09:00:25;;;;;;;13.73;4.35;;;;;;;-141.50;100.00;63355.56;4963136;28;20102;-79
2024/01/19 09:02:54;;;;;;;11.63;4.00;;;;;;;-141.50;100.00;63355.56;4960903;28;20055;-78
2024/01/19 09:05:29;;;;;;;9.70;4.05;;;;;;;-141.50;100.00;63355.56;4988100;28;20074;-78
2024/01/19 09:07:57;;;;;;;10.18;4.53;;;;;;;-141.50;100.00;63355.56;5007510;28;20074;-79
2024/01/19 09:10:24;;;;;;;10.48;4.40;;;;;;;-141.50;100.00;63355.56;4983293;28;20076;-78
2024/01/19 09:12:53;;;;;;;13.50;4.68;;;;;;;-141.50;100.00;63355.56;4975587;28;20047;-79
2024/01/19 09:15:20;;;;;;;9.18;4.30;;;;;;;-141.50;100.00;63355.56;4965423;28;20060;-79
2024/01/19 09:17:47;;;;;;;10.60;4.85;;;;;;;-141.50;100.00;63355.56;4957851;28;20578;-80
2024/01/19 09:20:14;;;;;;;13.18;5.47;;;;;;;-141.50;100.00;63355.56;4963970;28;20864;-80
2024/01/19 09:22:42;;;;;;;10.70;4.10;;;;;;;-141.50;100.00;63355.56;5010498;28;20054;-79
2024/01/19 09:25:11;;;;;;;8.93;4.25;;;;;;;-141.50;100.00;63355.56;4988942;28;20130;-79
2024/01/19 09:27:38;;;;;;;11.73;4.93;;;;;;;-141.50;100.00;63355.56;4956264;28;20051;-80
2024/01/19 09:30:06;;;;;;;12.77;4.70;;;;;;;-141.50;100.00;63355.56;4963195;28;20059;-79
2024/01/19 09:32:33;;;;;;;10.13;4.47;;;;;;;-141.50;100.00;63355.56;4955717;28;20134;-79
2024/01/19 09:35:00;;;;;;;11.70;3.78;;;;;;;-141.50;100.00;63355.56;4957580;28;20070;-79
2024/01/19 09:37:26;;;;;;;10.10;4.35;;;;;;;-141.50;100.00;63355.56;4999345;28;20104;-78
2024/01/19 09:39:53;;;;;;;9.82;3.80;;;;;;;-141.50;100.00;63355.56;4950850;28;20057;-79
2024/01/19 09:42:26;;;;;;;11.75;3.45;;;;;;;-141.50;100.00;63355.56;4957321;28;20629;-78
2024/01/19 09:45:04;;;;;;;14.63;3.22;;;;;;;-141.50;100.00;63355.56;4955487;28;20070;-78
2024/01/19 09:47:57;;;;;;;9.05;3.50;;;;;;;-141.50;100.00;63355.56;5021400;28;20112;-79
2024/01/19 09:50:26;;;;;;;10.15;3.90;;;;;;;-141.50;100.00;63355.56;4979893;28;20071;-78
2024/01/19 09:53:00;;;;;;;8.98;4.07;;;;;;;-141.50;100.00;63355.56;4978177;28;20061;-78
2024/01/19 09:55:27;;;;;;;12.95;4.00;;;;;;;-141.50;100.00;63355.56;4957336;28;20137;-78
2024/01/19 09:57:56;;;;;;;9.25;4.38;;;;;;;-141.50;100.00;63355.56;4951502;28;20047;-78
2024/01/19 10:00:23;;;;;;;13.23;3.95;;;;;;;-141.50;100.00;63355.56;4998394;28;20070;-79
2024/01/19 10:02:51;;;;;;;8.65;3.65;;;;;;;-141.50;100.00;63355.56;4961156;28;20625;-79
2024/01/19 10:05:20;;;;;;;11.27;3.30;;;;;;;-141.50;100.00;63355.56;4999547;28;20143;-78
2024/01/19 10:07:53;;;;;;;6.03;2.85;;;;;;;-141.50;100.00;63355.56;5015334;28;20054;-79
2024/01/19 10:10:20;;;;;;;11.45;3.47;;;;;;;-141.50;100.00;63355.56;4997782;28;20055;-79
2024/01/19 10:12:46;;;;;;;8.05;3.53;;;;;;;-141.50;100.00;63355.56;4993767;28;20058;-79
2024/01/19 10:15:15;;;;;;;10.70;3.35;;;;;;;-141.50;100.00;63355.56;5033227;28;20137;-79
2024/01/19 10:17:44;;;;;;;10.80;3.75;;;;;;;-141.50;100.00;63355.56;4952055;28;20128;-78
2024/01/19 10:20:13;;;;;;;12.55;4.18;;;;;;;-141.50;100.00;63355.56;4965302;28;20051;-81
2024/01/19 10:22:41;;;;;;;10.02;3.90;;;;;;;-141.50;100.00;63355.56;4984249;28;20460;-78
2024/01/19 10:25:10;;;;;;;12.10;4.35;;;;;;;-141.50;100.00;63355.56;4955059;28;20051;-79
2024/01/19 10:27:38;;;;;;;10.52;4.00;;;;;;;-141.50;100.00;63355.56;4954626;28;20051;-78
2024/01/19 10:30:12;;;;;;;9.77;4.18;;;;;;;-141.50;100.00;63355.56;4953852;28;20050;-78
2024/01/19 10:32:41;;;;;;;9.15;3.50;;;;;;;-141.50;100.00;63355.56;4977591;28;20057;-78
2024/01/19 10:35:13;;;;;;;14.18;4.30;;;;;;;-141.50;100.00;63355.56;4992934;28;20542;-79
2024/01/19 10:37:40;;;;;;;7.32;3.35;;;;;;;-141.50;100.00;63355.56;4953492;28;20046;-79
2024/01/19 10:40:19;;;;;;;10.40;4.07;;;;;;;-141.50;100.00;63355.56;4969974;28;20524;-78
2024/01/19 10:42:53;;;;;;;19.38;4.10;;;;;;;-141.50;100.00;63355.56;4948902;28;20658;-79
2024/01/19 10:45:22;;;;;;;10.20;4.13;;;;;;;-141.50;100.00;63355.56;4982116;28;20055;-79
2024/01/19 10:47:54;;;;;;;13.45;4.88;;;;;;;-141.50;100.00;63355.56;4951098;28;20147;-79
2024/01/19 10:50:25;;;;;;;14.68;4.20;;;;;;;-141.50;100.00;63355.56;4949455;28;20047;-79
2024/01/19 10:52:53;;;;;;;13.75;4.18;;;;;;;-141.50;100.00;63355.56;5038787;28;20055;-80
2024/01/19 10:55:29;;;;;;;9.43;3.70;;;;;;;-141.50;100.00;63355.56;5004262;28;20474;-79
2024/01/19 10:58:11;;;;;;;6.68;3.30;;;;;;;-141.50;100.00;63355.56;4976357;28;20510;-78